sensor_id;sensor_type;location;lat;lon;timestamp;pressure;altitude;pressure_sealevel;temperature;humidity
76321;BME280;65132;52.088;5.402;2023-08-21T00:01:08;102337.72;;;17.46;100.00
76321;BME280;65132;52.088;5.402;2023-08-21T00:03:41;102341.88;;;17.50;100.00
76321;BME280;65132;52.088;5.402;2023-08-21T00:06:13;102344.50;;;17.69;100.00
76321;BME280;65132;52.088;5.402;2023-08-21T00:08:39;102338.97;;;17.79;100.00
76321;BME280;65132;52.088;5.402;2023-08-21T00:11:06;102340.84;;;17.78;100.00
76321;BME280;65132;52.088;5.402;2023-08-21T00:13:45;102337.72;;;17.73;100.00
76321;BME280;65132;52.088;5.402;2023-08-21T00:16:24;102343.50;;;17.70;100.00
76321;BME280;65132;52.088;5.402;2023-08-21T00:18:53;102347.69;;;17.65;100.00
76321;BME280;65132;52.088;5.402;2023-08-21T00:21:21;102348.31;;;17.59;100.00
76321;BME280;65132;52.088;5.402;2023-08-21T00:23:48;102346.53;;;17.67;100.00
76321;BME280;65132;52.088;5.402;2023-08-21T00:26:15;102354.69;;;17.77;100.00
76321;BME280;65132;52.088;5.402;2023-08-21T00:28:44;102345.38;;;17.70;100.00
76321;BME280;65132;52.088;5.402;2023-08-21T00:31:10;102344.66;;;17.68;100.00
76321;BME280;65132;52.088;5.402;2023-08-21T00:33:39;102343.63;;;17.69;100.00
76321;BME280;65132;52.088;5.402;2023-08-21T00:36:07;102339.50;;;17.65;100.00
76321;BME280;65132;52.088;5.402;2023-08-21T00:38:41;102351.75;;;17.61;100.00
76321;BME280;65132;52.088;5.402;2023-08-21T00:41:10;102327.59;;;17.56;100.00
76321;BME280;65132;52.088;5.402;2023-08-21T00:43:36;102339.81;;;17.62;100.00
76321;BME280;65132;52.088;5.402;2023-08-21T00:46:04;102337.22;;;17.60;100.00
76321;BME280;65132;52.088;5.402;2023-08-21T00:48:34;102335.16;;;17.62;100.00
76321;BME280;65132;52.088;5.402;2023-08-21T00:51:08;102334.00;;;17.65;100.00
76321;BME280;65132;52.088;5.402;2023-08-21T00:53:37;102335.56;;;17.67;100.00
76321;BME280;65132;52.088;5.402;2023-08-21T00:56:11;102334.00;;;17.65;100.00
76321;BME280;65132;52.088;5.402;2023-08-21T00:58:42;102332.59;;;17.61;100.00
76321;BME280;65132;52.088;5.402;2023-08-21T01:01:09;102333.81;;;17.49;100.00
76321;BME280;65132;52.088;5.402;2023-08-21T01:03:38;102339.72;;;17.44;100.00
76321;BME280;65132;52.088;5.402;2023-08-21T01:06:09;102335.38;;;17.42;100.00
76321;BME280;65132;52.088;5.402;2023-08-21T01:08:55;102338.44;;;17.48;100.00
76321;BME280;65132;52.088;5.402;2023-08-21T01:11:34;102333.66;;;17.50;100.00
76321;BME280;65132;52.088;5.402;2023-08-21T01:14:27;102339.00;;;17.42;100.00
76321;BME280;65132;52.088;5.402;2023-08-21T01:17:02;102339.31;;;17.39;100.00
76321;BME280;65132;52.088;5.402;2023-08-21T01:19:42;102333.84;;;17.39;100.00
76321;BME280;65132;52.088;5.402;2023-08-21T01:22:13;102325.16;;;17.44;100.00
76321;BME280;65132;52.088;5.402;2023-08-21T01:24:42;102322.41;;;17.44;100.00
76321;BME280;65132;52.088;5.402;2023-08-21T01:27:10;102322.56;;;17.42;100.00
76321;BME280;65132;52.088;5.402;2023-08-21T01:29:40;102327.97;;;17.34;100.00
76321;BME280;65132;52.088;5.402;2023-08-21T01:35:17;102332.66;;;17.15;100.00
76321;BME280;65132;52.088;5.402;2023-08-21T01:38:01;102333.56;;;17.06;100.00
76321;BME280;65132;52.088;5.402;2023-08-21T01:40:30;102335.84;;;17.10;100.00
76321;BME280;65132;52.088;5.402;2023-08-21T01:42:56;102341.22;;;17.02;100.00
76321;BME280;65132;52.088;5.402;2023-08-21T01:45:28;102344.38;;;16.98;100.00
76321;BME280;65132;52.088;5.402;2023-08-21T01:47:57;102345.56;;;16.95;100.00
76321;BME280;65132;52.088;5.402;2023-08-21T01:50:25;102343.53;;;16.88;100.00
76321;BME280;65132;52.088;5.402;2023-08-21T01:53:02;102338.06;;;16.88;100.00
76321;BME280;65132;52.088;5.402;2023-08-21T01:55:39;102336.94;;;16.90;100.00
76321;BME280;65132;52.088;5.402;2023-08-21T01:58:16;102334.16;;;17.00;100.00
76321;BME280;65132;52.088;5.402;2023-08-21T02:00:47;102331.66;;;17.06;100.00
76321;BME280;65132;52.088;5.402;2023-08-21T02:03:17;102341.31;;;17.10;100.00
76321;BME280;65132;52.088;5.402;2023-08-21T02:05:46;102336.72;;;17.01;100.00
76321;BME280;65132;52.088;5.402;2023-08-21T02:08:13;102336.72;;;17.01;100.00
76321;BME280;65132;52.088;5.402;2023-08-21T02:10:52;102334.72;;;17.03;100.00
76321;BME280;65132;52.088;5.402;2023-08-21T02:13:21;102332.84;;;17.04;100.00
76321;BME280;65132;52.088;5.402;2023-08-21T02:15:53;102331.66;;;17.06;100.00
76321;BME280;65132;52.088;5.402;2023-08-21T02:18:22;102333.00;;;17.02;100.00
76321;BME280;65132;52.088;5.402;2023-08-21T02:20:52;102333.31;;;16.90;100.00
76321;BME280;65132;52.088;5.402;2023-08-21T02:23:19;102342.97;;;16.94;100.00
76321;BME280;65132;52.088;5.402;2023-08-21T02:25:48;102336.63;;;16.93;100.00
76321;BME280;65132;52.088;5.402;2023-08-21T02:28:16;102338.06;;;16.97;100.00
76321;BME280;65132;52.088;5.402;2023-08-21T02:30:49;102334.59;;;16.95;100.00
76321;BME280;65132;52.088;5.402;2023-08-21T02:33:15;102334.31;;;16.98;100.00
76321;BME280;65132;52.088;5.402;2023-08-21T02:35:43;102332.84;;;17.04;100.00
76321;BME280;65132;52.088;5.402;2023-08-21T02:38:13;102333.72;;;17.04;100.00
76321;BME280;65132;52.088;5.402;2023-08-21T02:40:39;102344.38;;;16.98;100.00
76321;BME280;65132;52.088;5.402;2023-08-21T02:43:09;102347.56;;;16.93;100.00
76321;BME280;65132;52.088;5.402;2023-08-21T02:45:39;102334.19;;;16.90;100.00
76321;BME280;65132;52.088;5.402;2023-08-21T02:48:09;102342.81;;;16.95;100.00
76321;BME280;65132;52.088;5.402;2023-08-21T02:50:35;102337.66;;;16.92;100.00
76321;BME280;65132;52.088;5.402;2023-08-21T02:53:19;102336.63;;;16.93;100.00
76321;BME280;65132;52.088;5.402;2023-08-21T02:55:52;102342.66;;;16.97;100.00
76321;BME280;65132;52.088;5.402;2023-08-21T02:58:40;102340.94;;;16.96;100.00
76321;BME280;65132;52.088;5.402;2023-08-21T03:01:07;102341.94;;;17.04;100.00
76321;BME280;65132;52.088;5.402;2023-08-21T03:03:49;102338.72;;;17.09;100.00
76321;BME280;65132;52.088;5.402;2023-08-21T03:06:20;102347.81;;;17.09;100.00
76321;BME280;65132;52.088;5.402;2023-08-21T03:08:52;102348.22;;;17.14;100.00
76321;BME280;65132;52.088;5.402;2023-08-21T03:11:21;102340.69;;;17.16;100.00
76321;BME280;65132;52.088;5.402;2023-08-21T03:13:48;102349.94;;;17.15;100.00
76321;BME280;65132;52.088;5.402;2023-08-21T03:16:18;102347.94;;;17.08;100.00
76321;BME280;65132;52.088;5.402;2023-08-21T03:18:57;102352.31;;;17.01;100.00
76321;BME280;65132;52.088;5.402;2023-08-21T03:21:36;102351.44;;;16.91;100.00
76321;BME280;65132;52.088;5.402;2023-08-21T03:24:06;102351.47;;;16.81;100.00
76321;BME280;65132;52.088;5.402;2023-08-21T03:26:33;102350.06;;;16.67;100.00
76321;BME280;65132;52.088;5.402;2023-08-21T03:29:04;102355.13;;;16.62;100.00
76321;BME280;65132;52.088;5.402;2023-08-21T03:31:31;102347.06;;;16.61;100.00
76321;BME280;65132;52.088;5.402;2023-08-21T03:34:02;102343.16;;;16.63;100.00
76321;BME280;65132;52.088;5.402;2023-08-21T03:36:32;102340.16;;;16.66;100.00
76321;BME280;65132;52.088;5.402;2023-08-21T03:39:02;102346.19;;;16.70;100.00
76321;BME280;65132;52.088;5.402;2023-08-21T03:41:31;102342.72;;;16.77;100.00
76321;BME280;65132;52.088;5.402;2023-08-21T03:44:04;102344.72;;;16.75;100.00
76321;BME280;65132;52.088;5.402;2023-08-21T03:46:31;102346.47;;;16.77;100.00
76321;BME280;65132;52.088;5.402;2023-08-21T03:49:00;102332.06;;;16.74;100.00
76321;BME280;65132;52.088;5.402;2023-08-21T03:51:34;102328.16;;;16.77;100.00
76321;BME280;65132;52.088;5.402;2023-08-21T03:54:02;102324.75;;;16.75;100.00
76321;BME280;65132;52.088;5.402;2023-08-21T03:56:30;102339.72;;;16.71;100.00
76321;BME280;65132;52.088;5.402;2023-08-21T03:58:58;102336.25;;;16.69;100.00
76321;BME280;65132;52.088;5.402;2023-08-21T04:01:29;102332.53;;;16.60;100.00
76321;BME280;65132;52.088;5.402;2023-08-21T04:03:57;102329.53;;;16.54;100.00
76321;BME280;65132;52.088;5.402;2023-08-21T04:06:23;102331.13;;;16.56;100.00
76321;BME280;65132;52.088;5.402;2023-08-21T04:08:52;102330.97;;;16.58;100.00
76321;BME280;65132;52.088;5.402;2023-08-21T04:11:26;102339.59;;;16.53;100.00
76321;BME280;65132;52.088;5.402;2023-08-21T04:13:55;102341.06;;;16.48;100.00
76321;BME280;65132;52.088;5.402;2023-08-21T04:16:22;102342.78;;;16.49;100.00
76321;BME280;65132;52.088;5.402;2023-08-21T04:18:51;102344.31;;;16.42;100.00
76321;BME280;65132;52.088;5.402;2023-08-21T04:21:17;102355.41;;;16.40;100.00
76321;BME280;65132;52.088;5.402;2023-08-21T04:23:51;102356.28;;;16.41;100.00
76321;BME280;65132;52.088;5.402;2023-08-21T04:26:19;102353.41;;;16.42;100.00
76321;BME280;65132;52.088;5.402;2023-08-21T04:28:46;102352.56;;;16.51;100.00
76321;BME280;65132;52.088;5.402;2023-08-21T04:31:19;102354.13;;;16.54;100.00
76321;BME280;65132;52.088;5.402;2023-08-21T04:33:54;102350.78;;;16.60;100.00
76321;BME280;65132;52.088;5.402;2023-08-21T04:36:29;102358.31;;;16.48;100.00
76321;BME280;65132;52.088;5.402;2023-08-21T04:39:00;102356.88;;;16.54;100.00
76321;BME280;65132;52.088;5.402;2023-08-21T04:41:28;102362.19;;;16.65;100.00
76321;BME280;65132;52.088;5.402;2023-08-21T04:43:56;102364.78;;;16.66;100.00
76321;BME280;65132;52.088;5.402;2023-08-21T04:46:24;102356.84;;;16.73;100.00
76321;BME280;65132;52.088;5.402;2023-08-21T04:48:52;102359.84;;;16.80;100.00
76321;BME280;65132;52.088;5.402;2023-08-21T04:51:24;102342.41;;;16.81;100.00
76321;BME280;65132;52.088;5.402;2023-08-21T04:53:53;102352.34;;;16.82;100.00
76321;BME280;65132;52.088;5.402;2023-08-21T04:56:23;102364.59;;;16.77;100.00
76321;BME280;65132;52.088;5.402;2023-08-21T04:58:49;102361.28;;;16.74;100.00
76321;BME280;65132;52.088;5.402;2023-08-21T05:01:18;102358.13;;;16.69;100.00
76321;BME280;65132;52.088;5.402;2023-08-21T05:03:46;102367.94;;;16.71;100.00
76321;BME280;65132;52.088;5.402;2023-08-21T05:06:22;102369.63;;;16.72;100.00
76321;BME280;65132;52.088;5.402;2023-08-21T05:08:53;102370.38;;;16.65;100.00
76321;BME280;65132;52.088;5.402;2023-08-21T05:11:32;102374.41;;;16.61;100.00
76321;BME280;65132;52.088;5.402;2023-08-21T05:14:02;102366.63;;;16.66;100.00
76321;BME280;65132;52.088;5.402;2023-08-21T05:16:32;102364.84;;;16.84;100.00
76321;BME280;65132;52.088;5.402;2023-08-21T05:19:01;102362.25;;;16.92;100.00
76321;BME280;65132;52.088;5.402;2023-08-21T05:21:28;102359.78;;;16.99;100.00
76321;BME280;65132;52.088;5.402;2023-08-21T05:23:57;102363.09;;;17.02;100.00
76321;BME280;65132;52.088;5.402;2023-08-21T05:26:24;102361.19;;;17.03;100.00
76321;BME280;65132;52.088;5.402;2023-08-21T05:28:52;102368.69;;;17.10;100.00
76321;BME280;65132;52.088;5.402;2023-08-21T05:31:23;102365.94;;;17.10;100.00
76321;BME280;65132;52.088;5.402;2023-08-21T05:33:53;102371.09;;;17.13;100.00
76321;BME280;65132;52.088;5.402;2023-08-21T05:36:24;102368.78;;;17.18;100.00
76321;BME280;65132;52.088;5.402;2023-08-21T05:38:51;102368.63;;;17.20;100.00
76321;BME280;65132;52.088;5.402;2023-08-21T05:41:20;102376.97;;;17.28;100.00
76321;BME280;65132;52.088;5.402;2023-08-21T05:43:46;102378.22;;;17.33;100.00
76321;BME280;65132;52.088;5.402;2023-08-21T05:46:14;102385.13;;;17.37;100.00
76321;BME280;65132;52.088;5.402;2023-08-21T05:48:44;102384.00;;;17.30;100.00
76321;BME280;65132;52.088;5.402;2023-08-21T05:51:18;102387.56;;;17.40;100.00
76321;BME280;65132;52.088;5.402;2023-08-21T05:53:46;102388.53;;;17.58;100.00
76321;BME280;65132;52.088;5.402;2023-08-21T06:07:01;102383.94;;;18.56;100.00
76321;BME280;65132;52.088;5.402;2023-08-21T06:12:05;102387.38;;;19.01;100.00
76321;BME280;65132;52.088;5.402;2023-08-21T06:14:31;102383.03;;;19.17;100.00
76321;BME280;65132;52.088;5.402;2023-08-21T06:17:04;102391.28;;;19.25;100.00
76321;BME280;65132;52.088;5.402;2023-08-21T06:19:32;102382.16;;;19.42;100.00
76321;BME280;65132;52.088;5.402;2023-08-21T06:21:58;102387.00;;;19.22;100.00
76321;BME280;65132;52.088;5.402;2023-08-21T06:24:26;102382.34;;;19.48;100.00
76321;BME280;65132;52.088;5.402;2023-08-21T06:26:56;102387.34;;;19.94;100.00
76321;BME280;65132;52.088;5.402;2023-08-21T06:29:25;102382.19;;;19.99;100.00
76321;BME280;65132;52.088;5.402;2023-08-21T06:31:56;102388.56;;;20.08;100.00
76321;BME280;65132;52.088;5.402;2023-08-21T06:34:31;102384.81;;;20.09;100.00
76321;BME280;65132;52.088;5.402;2023-08-21T06:37:03;102389.63;;;20.15;100.00
76321;BME280;65132;52.088;5.402;2023-08-21T06:39:31;102387.88;;;19.98;100.00
76321;BME280;65132;52.088;5.402;2023-08-21T06:42:07;102389.88;;;19.80;100.00
76321;BME280;65132;52.088;5.402;2023-08-21T06:44:36;102387.13;;;19.80;100.00
76321;BME280;65132;52.088;5.402;2023-08-21T06:47:06;102396.56;;;19.85;100.00
76321;BME280;65132;52.088;5.402;2023-08-21T06:49:35;102396.78;;;19.92;100.00
76321;BME280;65132;52.088;5.402;2023-08-21T06:52:03;102398.44;;;19.77;100.00
76321;BME280;65132;52.088;5.402;2023-08-21T06:54:32;102402.78;;;19.87;100.00
76321;BME280;65132;52.088;5.402;2023-08-21T06:56:59;102392.94;;;20.18;100.00
76321;BME280;65132;52.088;5.402;2023-08-21T06:59:28;102395.38;;;20.54;100.00
76321;BME280;65132;52.088;5.402;2023-08-21T07:01:58;102393.81;;;20.91;100.00
76321;BME280;65132;52.088;5.402;2023-08-21T07:04:25;102393.63;;;21.17;100.00
76321;BME280;65132;52.088;5.402;2023-08-21T07:06:52;102392.84;;;21.55;100.00
76321;BME280;65132;52.088;5.402;2023-08-21T07:09:24;102395.00;;;21.76;99.55
76321;BME280;65132;52.088;5.402;2023-08-21T07:12:02;102384.63;;;22.16;95.98
76321;BME280;65132;52.088;5.402;2023-08-21T07:14:30;102382.94;;;22.07;89.06
76321;BME280;65132;52.088;5.402;2023-08-21T07:16:57;102399.19;;;21.64;93.65
76321;BME280;65132;52.088;5.402;2023-08-21T07:19:36;102393.78;;;21.78;90.15
76321;BME280;65132;52.088;5.402;2023-08-21T07:22:03;102392.53;;;22.19;89.23
76321;BME280;65132;52.088;5.402;2023-08-21T07:24:31;102390.47;;;22.67;89.07
76321;BME280;65132;52.088;5.402;2023-08-21T07:27:06;102398.00;;;23.10;86.50
76321;BME280;65132;52.088;5.402;2023-08-21T07:29:33;102396.69;;;23.20;85.19
76321;BME280;65132;52.088;5.402;2023-08-21T07:32:01;102400.06;;;23.30;86.06
76321;BME280;65132;52.088;5.402;2023-08-21T07:34:29;102407.91;;;23.56;84.22
76321;BME280;65132;52.088;5.402;2023-08-21T07:36:55;102402.53;;;23.69;83.52
76321;BME280;65132;52.088;5.402;2023-08-21T07:39:26;102399.03;;;23.46;80.99
76321;BME280;65132;52.088;5.402;2023-08-21T07:41:58;102408.00;;;24.13;79.46
76321;BME280;65132;52.088;5.402;2023-08-21T07:44:32;102405.16;;;24.21;74.76
76321;BME280;65132;52.088;5.402;2023-08-21T07:47:01;102405.66;;;23.95;76.93
76321;BME280;65132;52.088;5.402;2023-08-21T07:49:52;102403.59;;;23.53;77.96
76321;BME280;65132;52.088;5.402;2023-08-21T07:52:27;102405.81;;;23.06;78.36
76321;BME280;65132;52.088;5.402;2023-08-21T07:54:55;102417.78;;;22.62;80.44
76321;BME280;65132;52.088;5.402;2023-08-21T07:57:33;102411.66;;;22.89;82.41
76321;BME280;65132;52.088;5.402;2023-08-21T08:00:08;102414.00;;;23.00;83.14
76321;BME280;65132;52.088;5.402;2023-08-21T08:02:35;102406.19;;;23.03;84.21
76321;BME280;65132;52.088;5.402;2023-08-21T08:05:05;102415.56;;;23.17;82.44
76321;BME280;65132;52.088;5.402;2023-08-21T08:07:36;102413.09;;;23.95;79.70
76321;BME280;65132;52.088;5.402;2023-08-21T08:10:06;102411.25;;;24.73;74.41
76321;BME280;65132;52.088;5.402;2023-08-21T08:12:37;102406.06;;;25.12;69.16
76321;BME280;65132;52.088;5.402;2023-08-21T08:15:05;102409.84;;;25.66;68.87
76321;BME280;65132;52.088;5.402;2023-08-21T08:17:31;102410.03;;;25.31;67.36
76321;BME280;65132;52.088;5.402;2023-08-21T08:19:58;102410.03;;;24.40;68.60
76321;BME280;65132;52.088;5.402;2023-08-21T08:22:30;102423.31;;;24.09;76.27
76321;BME280;65132;52.088;5.402;2023-08-21T08:24:58;102425.56;;;24.98;70.05
76321;BME280;65132;52.088;5.402;2023-08-21T08:27:28;102425.56;;;25.53;68.29
76321;BME280;65132;52.088;5.402;2023-08-21T08:29:54;102424.59;;;25.67;66.81
76321;BME280;65132;52.088;5.402;2023-08-21T08:32:25;102415.38;;;25.32;67.89
76321;BME280;65132;52.088;5.402;2023-08-21T08:34:55;102412.31;;;25.21;68.25
76321;BME280;65132;52.088;5.402;2023-08-21T08:37:23;102406.88;;;25.68;66.03
76321;BME280;65132;52.088;5.402;2023-08-21T08:39:55;102409.69;;;26.15;65.72
76321;BME280;65132;52.088;5.402;2023-08-21T08:42:22;102411.03;;;26.32;64.33
76321;BME280;65132;52.088;5.402;2023-08-21T08:44:49;102419.66;;;25.62;65.15
76321;BME280;65132;52.088;5.402;2023-08-21T08:47:17;102422.63;;;25.61;67.37
76321;BME280;65132;52.088;5.402;2023-08-21T08:49:48;102428.31;;;25.87;63.65
76321;BME280;65132;52.088;5.402;2023-08-21T08:52:17;102426.69;;;25.58;65.47
76321;BME280;65132;52.088;5.402;2023-08-21T08:54:44;102425.91;;;26.12;65.31
76321;BME280;65132;52.088;5.402;2023-08-21T08:57:12;102420.38;;;26.18;63.50
76321;BME280;65132;52.088;5.402;2023-08-21T08:59:38;102412.41;;;26.88;62.96
76321;BME280;65132;52.088;5.402;2023-08-21T09:02:08;102406.63;;;26.83;60.66
76321;BME280;65132;52.088;5.402;2023-08-21T09:04:37;102405.38;;;26.79;58.02
76321;BME280;65132;52.088;5.402;2023-08-21T09:07:10;102404.84;;;26.30;60.87
76321;BME280;65132;52.088;5.402;2023-08-21T09:09:41;102402.34;;;26.01;62.11
76321;BME280;65132;52.088;5.402;2023-08-21T09:12:12;102402.31;;;26.61;58.96
76321;BME280;65132;52.088;5.402;2023-08-21T09:14:40;102405.28;;;26.53;58.59
76321;BME280;65132;52.088;5.402;2023-08-21T09:17:11;102407.72;;;26.03;60.70
76321;BME280;65132;52.088;5.402;2023-08-21T09:19:39;102401.69;;;25.99;61.84
76321;BME280;65132;52.088;5.402;2023-08-21T09:22:14;102405.19;;;26.08;60.84
76321;BME280;65132;52.088;5.402;2023-08-21T09:27:29;102407.31;;;26.06;58.33
76321;BME280;65132;52.088;5.402;2023-08-21T09:29:57;102403.03;;;26.03;62.08
76321;BME280;65132;52.088;5.402;2023-08-21T09:32:24;102397.16;;;26.39;58.04
76321;BME280;65132;52.088;5.402;2023-08-21T09:34:53;102401.47;;;26.54;56.47
76321;BME280;65132;52.088;5.402;2023-08-21T09:37:19;102404.34;;;26.14;57.43
76321;BME280;65132;52.088;5.402;2023-08-21T09:39:46;102402.50;;;26.40;59.85
76321;BME280;65132;52.088;5.402;2023-08-21T09:42:13;102401.84;;;26.32;59.41
76321;BME280;65132;52.088;5.402;2023-08-21T09:44:43;102394.25;;;26.99;55.90
76321;BME280;65132;52.088;5.402;2023-08-21T09:47:13;102396.97;;;26.47;58.16
76321;BME280;65132;52.088;5.402;2023-08-21T09:49:42;102398.44;;;26.49;57.40
76321;BME280;65132;52.088;5.402;2023-08-21T09:52:13;102390.91;;;26.17;58.80
76321;BME280;65132;52.088;5.402;2023-08-21T09:54:44;102394.66;;;26.70;57.49
76321;BME280;65132;52.088;5.402;2023-08-21T09:57:11;102382.41;;;26.38;55.88
76321;BME280;65132;52.088;5.402;2023-08-21T09:59:41;102388.84;;;26.45;57.04
76321;BME280;65132;52.088;5.402;2023-08-21T10:02:13;102383.13;;;26.66;58.29
76321;BME280;65132;52.088;5.402;2023-08-21T10:04:40;102388.66;;;27.05;56.16
76321;BME280;65132;52.088;5.402;2023-08-21T10:07:10;102385.06;;;28.39;55.23
76321;BME280;65132;52.088;5.402;2023-08-21T10:09:41;102375.28;;;28.23;50.56
76321;BME280;65132;52.088;5.402;2023-08-21T10:12:13;102384.03;;;27.83;49.77
76321;BME280;65132;52.088;5.402;2023-08-21T10:14:41;102380.97;;;27.34;52.61
76321;BME280;65132;52.088;5.402;2023-08-21T10:17:08;102371.41;;;28.31;51.99
76321;BME280;65132;52.088;5.402;2023-08-21T10:19:35;102368.84;;;28.61;52.86
76321;BME280;65132;52.088;5.402;2023-08-21T10:22:01;102375.50;;;27.78;52.56
76321;BME280;65132;52.088;5.402;2023-08-21T10:24:36;102361.94;;;27.37;52.12
76321;BME280;65132;52.088;5.402;2023-08-21T10:27:09;102369.75;;;27.73;51.92
76321;BME280;65132;52.088;5.402;2023-08-21T10:29:38;102368.81;;;27.08;54.15
76321;BME280;65132;52.088;5.402;2023-08-21T10:32:07;102366.44;;;27.05;52.24
76321;BME280;65132;52.088;5.402;2023-08-21T10:34:38;102373.47;;;28.11;50.25
76321;BME280;65132;52.088;5.402;2023-08-21T10:37:11;102381.44;;;27.94;49.51
76321;BME280;65132;52.088;5.402;2023-08-21T10:39:54;102383.59;;;27.99;50.02
76321;BME280;65132;52.088;5.402;2023-08-21T10:42:39;102382.22;;;28.08;48.60
76321;BME280;65132;52.088;5.402;2023-08-21T10:45:14;102380.91;;;28.17;48.96
76321;BME280;65132;52.088;5.402;2023-08-21T10:47:44;102373.75;;;28.34;49.45
76321;BME280;65132;52.088;5.402;2023-08-21T10:50:13;102383.97;;;28.40;48.06
76321;BME280;65132;52.088;5.402;2023-08-21T10:52:44;102380.53;;;28.45;48.39
76321;BME280;65132;52.088;5.402;2023-08-21T10:55:15;102378.69;;;29.19;48.98
76321;BME280;65132;52.088;5.402;2023-08-21T10:57:50;102373.16;;;28.25;48.24
76321;BME280;65132;52.088;5.402;2023-08-21T11:00:19;102376.16;;;28.86;48.74
76321;BME280;65132;52.088;5.402;2023-08-21T11:02:49;102369.44;;;28.38;49.12
76321;BME280;65132;52.088;5.402;2023-08-21T11:05:16;102372.69;;;28.66;49.03
76321;BME280;65132;52.088;5.402;2023-08-21T11:07:48;102371.91;;;28.84;49.82
76321;BME280;65132;52.088;5.402;2023-08-21T11:10:17;102372.47;;;29.17;48.40
76321;BME280;65132;52.088;5.402;2023-08-21T11:12:53;102371.53;;;29.84;47.88
76321;BME280;65132;52.088;5.402;2023-08-21T11:15:29;102376.47;;;29.64;46.31
76321;BME280;65132;52.088;5.402;2023-08-21T11:17:58;102369.44;;;29.79;45.57
76321;BME280;65132;52.088;5.402;2023-08-21T11:20:32;102363.94;;;29.73;45.25
76321;BME280;65132;52.088;5.402;2023-08-21T11:23:04;102366.78;;;29.48;46.46
76321;BME280;65132;52.088;5.402;2023-08-21T11:25:35;102361.03;;;29.97;45.02
76321;BME280;65132;52.088;5.402;2023-08-21T11:28:04;102370.59;;;29.90;45.49
76321;BME280;65132;52.088;5.402;2023-08-21T11:30:32;102354.44;;;30.10;44.21
76321;BME280;65132;52.088;5.402;2023-08-21T11:33:05;102360.78;;;29.63;45.77
76321;BME280;65132;52.088;5.402;2023-08-21T11:35:37;102363.00;;;30.56;43.55
76321;BME280;65132;52.088;5.402;2023-08-21T11:38:06;102351.59;;;30.28;43.81
76321;BME280;65132;52.088;5.402;2023-08-21T11:40:39;102360.59;;;29.82;44.73
76321;BME280;65132;52.088;5.402;2023-08-21T11:43:06;102359.38;;;30.08;43.46
76321;BME280;65132;52.088;5.402;2023-08-21T11:45:32;102358.59;;;30.90;40.03
76321;BME280;65132;52.088;5.402;2023-08-21T11:48:19;102360.03;;;31.27;39.06
76321;BME280;65132;52.088;5.402;2023-08-21T11:50:47;102349.59;;;30.99;38.65
76321;BME280;65132;52.088;5.402;2023-08-21T11:53:14;102350.97;;;31.94;36.35
76321;BME280;65132;52.088;5.402;2023-08-21T11:55:40;102352.47;;;31.74;35.47
76321;BME280;65132;52.088;5.402;2023-08-21T11:58:09;102342.41;;;32.57;36.56
76321;BME280;65132;52.088;5.402;2023-08-21T12:00:39;102346.16;;;32.79;38.95
76321;BME280;65132;52.088;5.402;2023-08-21T12:03:06;102352.50;;;32.74;37.10
76321;BME280;65132;52.088;5.402;2023-08-21T12:05:32;102346.19;;;33.50;36.36
76321;BME280;65132;52.088;5.402;2023-08-21T12:08:01;102346.03;;;33.24;36.13
76321;BME280;65132;52.088;5.402;2023-08-21T12:10:29;102346.03;;;32.13;34.01
76321;BME280;65132;52.088;5.402;2023-08-21T12:12:56;102337.97;;;30.73;35.91
76321;BME280;65132;52.088;5.402;2023-08-21T12:15:22;102343.75;;;30.48;38.34
76321;BME280;65132;52.088;5.402;2023-08-21T12:17:49;102344.38;;;31.37;37.19
76321;BME280;65132;52.088;5.402;2023-08-21T12:20:16;102335.97;;;31.37;37.94
76321;BME280;65132;52.088;5.402;2023-08-21T12:22:42;102335.00;;;31.95;37.55
76321;BME280;65132;52.088;5.402;2023-08-21T12:25:10;102321.59;;;32.25;37.37
76321;BME280;65132;52.088;5.402;2023-08-21T12:27:37;102331.88;;;32.64;34.76
76321;BME280;65132;52.088;5.402;2023-08-21T12:30:05;102323.84;;;32.56;33.49
76321;BME280;65132;52.088;5.402;2023-08-21T12:32:32;102322.00;;;32.33;35.75
76321;BME280;65132;52.088;5.402;2023-08-21T12:35:03;102321.28;;;32.38;36.19
76321;BME280;65132;52.088;5.402;2023-08-21T12:37:38;102321.47;;;32.20;35.80
76321;BME280;65132;52.088;5.402;2023-08-21T12:40:07;102326.41;;;32.57;35.53
76321;BME280;65132;52.088;5.402;2023-08-21T12:42:34;102321.06;;;31.72;36.01
76321;BME280;65132;52.088;5.402;2023-08-21T12:45:02;102322.53;;;31.62;37.50
76321;BME280;65132;52.088;5.402;2023-08-21T12:47:29;102305.75;;;31.28;38.37
76321;BME280;65132;52.088;5.402;2023-08-21T12:49:56;102311.94;;;31.64;38.30
76321;BME280;65132;52.088;5.402;2023-08-21T12:52:22;102312.94;;;31.47;38.16
76321;BME280;65132;52.088;5.402;2023-08-21T12:54:53;102313.09;;;30.94;39.20
76321;BME280;65132;52.088;5.402;2023-08-21T12:57:28;102311.75;;;30.03;41.50
76321;BME280;65132;52.088;5.402;2023-08-21T12:59:55;102323.75;;;29.56;43.95
76321;BME280;65132;52.088;5.402;2023-08-21T13:02:27;102317.09;;;29.38;46.17
76321;BME280;65132;52.088;5.402;2023-08-21T13:05:13;102319.25;;;29.36;46.97
76321;BME280;65132;52.088;5.402;2023-08-21T13:07:44;102322.66;;;29.20;47.74
76321;BME280;65132;52.088;5.402;2023-08-21T13:10:13;102315.88;;;30.71;44.19
76321;BME280;65132;52.088;5.402;2023-08-21T13:12:40;102318.31;;;31.37;41.43
76321;BME280;65132;52.088;5.402;2023-08-21T13:15:10;102304.09;;;32.18;39.95
76321;BME280;65132;52.088;5.402;2023-08-21T13:17:39;102307.53;;;32.69;38.48
76321;BME280;65132;52.088;5.402;2023-08-21T13:20:14;102306.28;;;32.77;34.47